Time;durP1;ratioP1;P1;durP2;ratioP2;P2;SDS_P1;SDS_P2;PMS_P1;PMS_P2;Temp;Humidity;BMP_temperature;BMP_pressure;BME280_temperature;BME280_humidity;BME280_pressure;Samples;Min_cycle;Max_cycle;Signal;HPM_P1;HPM_P2
2023/01/25 00:01:33;;;;;;;;;;;27.50;99.90;;;;;;5036707;28;20494;-73
2023/01/25 00:04:00;;;;;;;;;;;27.40;99.90;;;;;;5037067;28;19916;-74
2023/01/25 00:06:26;;;;;;;;;;;27.30;99.90;;;;;;5037304;28;21050;-71
2023/01/25 00:08:54;;;;;;;;;;;27.60;99.90;;;;;;5038395;28;19912;-74
2023/01/25 00:11:20;;;;;;;;;;;28.20;99.90;;;;;;5042232;28;19948;-72
2023/01/25 00:13:47;;;;;;;;;;;28.20;99.90;;;;;;5039532;28;19916;-73
2023/01/25 00:16:14;;;;;;;;;;;28.20;99.90;;;;;;5037179;28;20347;-72
2023/01/25 00:18:40;;;;;;;;;;;28.60;99.90;;;;;;5036416;28;19962;-71
2023/01/25 00:21:17;;;;;;;;;;;29.30;99.90;;;;;;5035975;28;19924;-75
2023/01/25 00:23:44;;;;;;;;;;;30.00;99.20;;;;;;5036479;28;19936;-74
2023/01/25 00:26:11;;;;;;;;;;;30.40;98.80;;;;;;5035101;28;20338;-75
2023/01/25 00:28:37;;;;;;;;;;;30.50;99.20;;;;;;5036566;28;19916;-72
2023/01/25 00:31:05;;;;;;;;;;;30.70;98.10;;;;;;5034862;28;20399;-75
2023/01/25 00:33:34;;;;;;;;;;;30.30;98.60;;;;;;5038548;28;19920;-77
2023/01/25 00:36:01;;;;;;;;;;;29.80;98.90;;;;;;5035805;28;19916;-73
2023/01/25 00:38:33;;;;;;;;;;;29.50;98.90;;;;;;5036509;28;19913;-75
2023/01/25 00:41:00;;;;;;;;;;;29.20;99.70;;;;;;5036278;28;20362;-74
2023/01/25 00:43:27;;;;;;;;;;;29.00;99.90;;;;;;5034522;28;19959;-73
2023/01/25 00:45:59;;;;;;;;;;;29.00;99.90;;;;;;5035307;28;19955;-73
2023/01/25 00:48:26;;;;;;;;;;;29.10;99.90;;;;;;5035860;28;19959;-76
2023/01/25 00:50:52;;;;;;;;;;;29.40;99.60;;;;;;5036464;28;19920;-73
2023/01/25 00:53:19;;;;;;;;;;;30.10;99.90;;;;;;5035387;28;19966;-73
2023/01/25 00:55:52;;;;;;;;;;;30.80;99.50;;;;;;5033932;28;19982;-72
2023/01/25 00:58:19;;;;;;;;;;;31.30;98.90;;;;;;5032053;28;19958;-72
2023/01/25 01:00:45;;;;;;;;;;;31.70;98.60;;;;;;5029652;28;19916;-71
2023/01/25 01:03:12;;;;;;;;;;;31.90;96.90;;;;;;5030773;28;19916;-73
2023/01/25 01:05:39;;;;;;;;;;;32.30;96.80;;;;;;5030152;28;20429;-71
2023/01/25 01:08:05;;;;;;;;;;;32.50;96.20;;;;;;5031060;28;19964;-70
2023/01/25 01:10:32;;;;;;;;;;;32.60;96.30;;;;;;5028247;28;19923;-71
2023/01/25 01:12:59;;;;;;;;;;;32.80;97.40;;;;;;5031229;28;20121;-71
2023/01/25 01:15:25;;;;;;;;;;;32.70;95.60;;;;;;5039039;28;19921;-71
2023/01/25 01:17:52;;;;;;;;;;;32.80;96.10;;;;;;5030961;28;19958;-72
2023/01/25 01:20:19;;;;;;;;;;;33.00;96.00;;;;;;5031371;28;19966;-72
2023/01/25 01:22:46;;;;;;;;;;;33.20;95.30;;;;;;5044186;28;19927;-70
2023/01/25 01:25:13;;;;;;;;;;;33.10;94.50;;;;;;5032775;28;19924;-71
2023/01/25 01:27:39;;;;;;;;;;;32.90;93.80;;;;;;5038958;28;19919;-72
2023/01/25 01:30:06;;;;;;;;;;;32.80;94.70;;;;;;5045228;28;19948;-71
2023/01/25 01:32:33;;;;;;;;;;;32.70;95.60;;;;;;5042588;28;19913;-75
2023/01/25 01:35:00;;;;;;;;;;;32.30;95.20;;;;;;5036355;28;19924;-73
2023/01/25 01:37:26;;;;;;;;;;;31.80;95.00;;;;;;5033095;28;19912;-74
2023/01/25 01:39:53;;;;;;;;;;;31.60;94.90;;;;;;5033300;28;19920;-74
2023/01/25 01:42:20;;;;;;;;;;;31.60;94.70;;;;;;5032265;28;20409;-74
2023/01/25 01:44:48;;;;;;;;;;;31.80;95.20;;;;;;5031752;28;19917;-73
2023/01/25 01:47:27;;;;;;;;;;;32.30;94.90;;;;;;5031786;28;20375;-75
2023/01/25 01:49:57;;;;;;;;;;;32.60;94.40;;;;;;5046560;28;19919;-73
2023/01/25 01:52:26;;;;;;;;;;;32.90;94.10;;;;;;5032280;28;19977;-75
2023/01/25 01:54:58;;;;;;;;;;;33.30;94.70;;;;;;5032260;28;19920;-76
2023/01/25 01:57:28;;;;;;;;;;;33.30;94.00;;;;;;5031762;28;20451;-72
2023/01/25 02:00:02;;;;;;;;;;;33.40;93.40;;;;;;5031721;28;19916;-74
2023/01/25 02:02:28;;;;;;;;;;;33.60;94.30;;;;;;5032730;28;20300;-72
2023/01/25 02:04:58;;;;;;;;;;;34.00;94.60;;;;;;5030155;28;19916;-72
2023/01/25 02:07:35;;;;;;;;;;;33.70;92.40;;;;;;5031873;28;20656;-73
2023/01/25 02:10:06;;;;;;;;;;;33.80;92.00;;;;;;5030624;28;19913;-73
2023/01/25 02:12:32;;;;;;;;;;;33.30;92.00;;;;;;5028994;28;19960;-72
2023/01/25 02:14:59;;;;;;;;;;;33.10;92.00;;;;;;5038326;28;20308;-74
2023/01/25 02:17:26;;;;;;;;;;;33.00;92.80;;;;;;5028594;28;19913;-74
2023/01/25 02:19:52;;;;;;;;;;;33.30;93.50;;;;;;5029425;28;19924;-73
2023/01/25 02:22:22;;;;;;;;;;;33.60;92.00;;;;;;5033263;28;19921;-75
2023/01/25 02:24:52;;;;;;;;;;;33.80;91.20;;;;;;5030810;28;19912;-75
2023/01/25 02:27:19;;;;;;;;;;;33.70;91.10;;;;;;5032238;28;19926;-72
2023/01/25 02:29:46;;;;;;;;;;;33.40;91.30;;;;;;5028670;28;20360;-72
2023/01/25 02:32:13;;;;;;;;;;;33.50;91.50;;;;;;5031386;28;19916;-74
2023/01/25 02:34:40;;;;;;;;;;;33.60;92.30;;;;;;5030131;28;19927;-73
2023/01/25 02:37:08;;;;;;;;;;;33.90;92.00;;;;;;5029848;28;19978;-73
2023/01/25 02:39:34;;;;;;;;;;;34.00;92.00;;;;;;5029439;28;19912;-72
2023/01/25 02:42:01;;;;;;;;;;;34.00;90.70;;;;;;5029668;28;19932;-74
2023/01/25 02:44:30;;;;;;;;;;;34.20;90.80;;;;;;5034269;28;20057;-73
2023/01/25 02:46:56;;;;;;;;;;;34.10;90.70;;;;;;5029536;28;19917;-72
2023/01/25 02:49:23;;;;;;;;;;;34.10;91.60;;;;;;5029897;28;19917;-72
2023/01/25 02:51:54;;;;;;;;;;;34.20;92.00;;;;;;5028578;28;19940;-74
2023/01/25 02:54:21;;;;;;;;;;;34.30;92.80;;;;;;5030700;28;19924;-73
2023/01/25 02:56:48;;;;;;;;;;;34.60;92.70;;;;;;5029276;28;19928;-71
2023/01/25 02:59:17;;;;;;;;;;;34.80;91.30;;;;;;5030820;28;20033;-75
2023/01/25 03:01:44;;;;;;;;;;;34.90;92.40;;;;;;5028830;28;19916;-75
2023/01/25 03:04:11;;;;;;;;;;;35.10;92.30;;;;;;5029799;28;19924;-74
2023/01/25 03:06:38;;;;;;;;;;;35.20;90.90;;;;;;5029895;28;20643;-72
2023/01/25 03:09:06;;;;;;;;;;;35.40;90.20;;;;;;5037472;28;20767;-72
2023/01/25 03:11:33;;;;;;;;;;;35.50;90.60;;;;;;5029501;28;19916;-79
2023/01/25 03:14:00;;;;;;;;;;;35.50;90.40;;;;;;5031520;28;19939;-75
2023/01/25 03:16:30;;;;;;;;;;;35.60;90.60;;;;;;5034604;28;20046;-73
2023/01/25 03:18:56;;;;;;;;;;;35.90;90.60;;;;;;5031778;28;20011;-70
2023/01/25 03:21:23;;;;;;;;;;;36.20;90.20;;;;;;5028702;28;20033;-71
2023/01/25 03:24:01;;;;;;;;;;;36.30;89.20;;;;;;5035080;28;19929;-76
2023/01/25 03:26:28;;;;;;;;;;;36.00;86.30;;;;;;5030234;28;19916;-74
2023/01/25 03:28:55;;;;;;;;;;;35.90;90.20;;;;;;5031569;28;20050;-76
2023/01/25 03:31:23;;;;;;;;;;;35.80;90.80;;;;;;5031244;28;20359;-70
2023/01/25 03:33:50;;;;;;;;;;;35.80;91.30;;;;;;5030853;28;19925;-70
2023/01/25 03:36:17;;;;;;;;;;;35.80;90.80;;;;;;5030002;28;20278;-72
2023/01/25 03:38:43;;;;;;;;;;;35.70;90.30;;;;;;5030419;28;20379;-76
2023/01/25 03:41:12;;;;;;;;;;;35.70;91.00;;;;;;5030933;28;19938;-70
2023/01/25 03:43:39;;;;;;;;;;;35.70;90.90;;;;;;5029046;28;19913;-74
2023/01/25 03:46:06;;;;;;;;;;;35.90;91.00;;;;;;5030051;28;19913;-71
2023/01/25 03:48:32;;;;;;;;;;;36.00;91.30;;;;;;5029344;28;19917;-73
2023/01/25 03:51:00;;;;;;;;;;;35.80;90.30;;;;;;5028978;28;20287;-74
2023/01/25 03:53:31;;;;;;;;;;;35.60;90.30;;;;;;5028627;28;20858;-75
2023/01/25 03:56:00;;;;;;;;;;;35.70;89.40;;;;;;5029164;28;20062;-76
2023/01/25 03:58:28;;;;;;;;;;;35.70;90.30;;;;;;5029825;28;19909;-79
2023/01/25 04:00:55;;;;;;;;;;;35.60;90.30;;;;;;5029022;28;19912;-76
2023/01/25 04:03:22;;;;;;;;;;;35.50;90.70;;;;;;5029565;28;21057;-71
2023/01/25 04:05:49;;;;;;;;;;;35.60;90.20;;;;;;5034481;28;20427;-71
2023/01/25 04:08:19;;;;;;;;;;;35.50;89.50;;;;;;5049903;28;20382;-72
2023/01/25 04:10:55;;;;;;;;;;;35.30;89.10;;;;;;5049655;28;19913;-73
2023/01/25 04:13:23;;;;;;;;;;;34.90;89.50;;;;;;5055437;28;19908;-72
2023/01/25 04:15:50;;;;;;;;;;;34.80;90.00;;;;;;5058995;28;19908;-75
2023/01/25 04:18:17;;;;;;;;;;;35.00;90.20;;;;;;5050534;28;20234;-71
2023/01/25 04:20:44;;;;;;;;;;;35.00;89.40;;;;;;5052131;28;19919;-72
2023/01/25 04:23:11;;;;;;;;;;;34.70;90.10;;;;;;5032668;28;19912;-70
2023/01/25 04:25:38;;;;;;;;;;;34.50;90.10;;;;;;5030663;28;20019;-75
2023/01/25 04:28:04;;;;;;;;;;;34.10;89.80;;;;;;5029502;28;20044;-72
2023/01/25 04:30:31;;;;;;;;;;;33.80;90.30;;;;;;5029110;28;19917;-73
2023/01/25 04:33:02;;;;;;;;;;;33.60;90.60;;;;;;5029663;28;19912;-72
2023/01/25 04:35:29;;;;;;;;;;;33.60;90.90;;;;;;5032996;28;20287;-73
2023/01/25 04:37:56;;;;;;;;;;;33.90;90.80;;;;;;5032710;28;19923;-72
2023/01/25 04:40:23;;;;;;;;;;;33.90;90.30;;;;;;5033915;28;19935;-71
2023/01/25 04:42:50;;;;;;;;;;;33.60;90.30;;;;;;5031498;28;19965;-71
2023/01/25 04:45:16;;;;;;;;;;;33.20;90.60;;;;;;5031436;28;19944;-72
2023/01/25 04:47:43;;;;;;;;;;;33.30;90.90;;;;;;5032406;28;19913;-71
2023/01/25 04:50:10;;;;;;;;;;;33.50;90.50;;;;;;5031777;28;20008;-72
2023/01/25 04:52:37;;;;;;;;;;;33.70;90.90;;;;;;5032836;28;19921;-72
2023/01/25 04:55:03;;;;;;;;;;;33.60;91.30;;;;;;5032295;28;19924;-73
2023/01/25 04:57:30;;;;;;;;;;;33.70;91.60;;;;;;5032130;28;20023;-72
2023/01/25 04:59:57;;;;;;;;;;;33.90;91.00;;;;;;5030758;28;20004;-72
2023/01/25 05:02:24;;;;;;;;;;;34.10;91.00;;;;;;5031301;28;21178;-74
2023/01/25 05:04:50;;;;;;;;;;;34.20;91.10;;;;;;5033102;28;20015;-72
2023/01/25 05:07:17;;;;;;;;;;;34.30;90.70;;;;;;5033125;28;19941;-71
2023/01/25 05:09:44;;;;;;;;;;;34.20;91.00;;;;;;5037811;28;19996;-72
2023/01/25 05:12:12;;;;;;;;;;;33.70;91.00;;;;;;5031321;28;19970;-74
2023/01/25 05:14:42;;;;;;;;;;;33.10;91.50;;;;;;5033985;28;20016;-72
2023/01/25 05:17:08;;;;;;;;;;;32.60;92.00;;;;;;5026362;28;20298;-74
2023/01/25 05:19:35;;;;;;;;;;;32.30;92.10;;;;;;5027196;28;19912;-73
2023/01/25 05:22:06;;;;;;;;;;;32.20;92.40;;;;;;5025198;28;20334;-71
2023/01/25 05:24:36;;;;;;;;;;;32.50;92.50;;;;;;5027271;28;19917;-74
2023/01/25 05:27:03;;;;;;;;;;;32.80;92.10;;;;;;5026626;28;19917;-72
2023/01/25 05:29:30;;;;;;;;;;;33.10;92.50;;;;;;5026974;28;19917;-77
2023/01/25 05:31:58;;;;;;;;;;;33.30;92.40;;;;;;5028083;28;19913;-73
2023/01/25 05:34:25;;;;;;;;;;;33.40;92.30;;;;;;5028478;28;20083;-75
2023/01/25 05:36:55;;;;;;;;;;;33.10;92.30;;;;;;5025030;28;22228;-73
2023/01/25 05:39:21;;;;;;;;;;;33.00;92.30;;;;;;5027770;28;19913;-71
2023/01/25 05:41:48;;;;;;;;;;;33.00;92.20;;;;;;5028181;28;19928;-73
2023/01/25 05:44:15;;;;;;;;;;;33.10;92.50;;;;;;5025990;28;19951;-72
2023/01/25 05:46:42;;;;;;;;;;;33.10;92.60;;;;;;5025679;28;19920;-72
2023/01/25 05:49:09;;;;;;;;;;;33.00;92.60;;;;;;5026628;28;19979;-73
2023/01/25 05:51:37;;;;;;;;;;;32.60;92.70;;;;;;5026039;28;19970;-72
2023/01/25 05:54:07;;;;;;;;;;;32.40;92.90;;;;;;5026352;28;20019;-72
2023/01/25 05:56:34;;;;;;;;;;;32.20;93.20;;;;;;5025128;28;19916;-72
2023/01/25 05:59:01;;;;;;;;;;;32.30;92.90;;;;;;5025555;28;20019;-73
2023/01/25 06:01:28;;;;;;;;;;;32.40;92.80;;;;;;5027109;28;19915;-73
2023/01/25 06:03:55;;;;;;;;;;;32.50;93.10;;;;;;5026215;28;19913;-73
2023/01/25 06:06:21;;;;;;;;;;;32.50;93.00;;;;;;5026771;28;20398;-72
2023/01/25 06:08:48;;;;;;;;;;;32.60;92.80;;;;;;5023983;28;20446;-73
2023/01/25 06:11:16;;;;;;;;;;;32.40;92.90;;;;;;5029219;28;20458;-74
2023/01/25 06:13:43;;;;;;;;;;;32.40;93.00;;;;;;5040985;28;19908;-72
2023/01/25 06:16:10;;;;;;;;;;;32.20;93.30;;;;;;5032940;28;19916;-71
2023/01/25 06:18:37;;;;;;;;;;;32.00;93.30;;;;;;5032384;28;19959;-72
2023/01/25 06:21:04;;;;;;;;;;;31.90;93.50;;;;;;5023508;28;20244;-73
2023/01/25 06:23:31;;;;;;;;;;;31.90;93.50;;;;;;5032476;28;19913;-72
2023/01/25 06:25:59;;;;;;;;;;;31.90;93.30;;;;;;5031836;28;20270;-73
2023/01/25 06:28:28;;;;;;;;;;;31.90;93.50;;;;;;5031169;28;19952;-73
2023/01/25 06:30:55;;;;;;;;;;;31.70;93.60;;;;;;5034062;28;19913;-72
2023/01/25 06:33:22;;;;;;;;;;;31.60;93.60;;;;;;5032769;28;19921;-71
2023/01/25 06:35:49;;;;;;;;;;;31.60;93.60;;;;;;5033040;28;20474;-69
2023/01/25 06:38:15;;;;;;;;;;;31.40;93.90;;;;;;5030455;28;19916;-72
2023/01/25 06:40:42;;;;;;;;;;;31.30;94.00;;;;;;5024849;28;19913;-73
2023/01/25 06:43:10;;;;;;;;;;;31.20;94.00;;;;;;5028554;28;19970;-72
2023/01/25 06:45:37;;;;;;;;;;;31.10;94.10;;;;;;5025831;28;19909;-71
2023/01/25 06:48:04;;;;;;;;;;;31.10;94.00;;;;;;5026630;28;19916;-73
2023/01/25 06:50:31;;;;;;;;;;;31.10;94.50;;;;;;5023755;28;19967;-72
2023/01/25 06:52:58;;;;;;;;;;;31.00;94.40;;;;;;5024477;28;20327;-72
2023/01/25 06:55:25;;;;;;;;;;;30.80;94.50;;;;;;5025567;28;19959;-71
2023/01/25 06:57:51;;;;;;;;;;;30.80;94.40;;;;;;5025215;28;22110;-72
2023/01/25 07:00:18;;;;;;;;;;;30.70;94.50;;;;;;5025402;28;19917;-72
2023/01/25 07:02:45;;;;;;;;;;;30.60;94.60;;;;;;5024829;28;19917;-71
2023/01/25 07:05:12;;;;;;;;;;;30.50;94.80;;;;;;5024761;28;20323;-71
2023/01/25 07:07:39;;;;;;;;;;;30.50;94.80;;;;;;5030836;28;20347;-70
2023/01/25 07:10:05;;;;;;;;;;;30.40;94.70;;;;;;5024324;28;20446;-70
2023/01/25 07:12:32;;;;;;;;;;;30.40;94.70;;;;;;5025503;28;19923;-72
2023/01/25 07:15:02;;;;;;;;;;;30.30;94.80;;;;;;5028729;28;19920;-72
2023/01/25 07:17:29;;;;;;;;;;;30.30;94.80;;;;;;5031262;28;19966;-72
2023/01/25 07:19:56;;;;;;;;;;;30.30;94.90;;;;;;5031112;28;19999;-72
2023/01/25 07:22:22;;;;;;;;;;;30.20;94.70;;;;;;5031433;28;19928;-70
2023/01/25 07:24:51;;;;;;;;;;;30.10;94.80;;;;;;5031214;28;19915;-74
2023/01/25 07:27:18;;;;;;;;;;;30.00;94.80;;;;;;5032099;28;19916;-72
2023/01/25 07:29:45;;;;;;;;;;;30.00;95.00;;;;;;5029045;28;19970;-72
2023/01/25 07:32:13;;;;;;;;;;;29.90;94.90;;;;;;5031456;28;19995;-75
2023/01/25 07:34:39;;;;;;;;;;;29.90;94.80;;;;;;5030817;28;20008;-73
2023/01/25 07:37:08;;;;;;;;;;;29.80;94.90;;;;;;5031422;28;19923;-72
2023/01/25 07:39:35;;;;;;;;;;;29.70;95.00;;;;;;5030929;28;20110;-72
2023/01/25 07:42:01;;;;;;;;;;;29.70;94.90;;;;;;5030496;28;19916;-73
2023/01/25 07:44:28;;;;;;;;;;;29.60;95.00;;;;;;5031168;28;19913;-71
2023/01/25 07:46:55;;;;;;;;;;;29.50;95.10;;;;;;5030397;28;19935;-72
2023/01/25 07:49:22;;;;;;;;;;;29.40;95.00;;;;;;5031963;28;20511;-72
2023/01/25 07:51:48;;;;;;;;;;;29.40;95.00;;;;;;5030027;28;20574;-72
2023/01/25 07:54:16;;;;;;;;;;;29.40;95.10;;;;;;5031411;28;20012;-73
2023/01/25 07:56:43;;;;;;;;;;;29.30;95.30;;;;;;5031433;28;19947;-72
2023/01/25 07:59:10;;;;;;;;;;;29.30;95.20;;;;;;5029859;28;20741;-72
2023/01/25 08:01:37;;;;;;;;;;;29.20;95.30;;;;;;5030719;28;19959;-73
2023/01/25 08:04:04;;;;;;;;;;;29.10;95.50;;;;;;5030872;28;19916;-73
2023/01/25 08:06:34;;;;;;;;;;;29.00;95.40;;;;;;5030781;28;19909;-73
2023/01/25 08:09:05;;;;;;;;;;;28.90;95.20;;;;;;5043261;28;19919;-72
2023/01/25 08:11:32;;;;;;;;;;;28.90;95.20;;;;;;5034841;28;19919;-73
2023/01/25 08:14:00;;;;;;;;;;;28.80;95.50;;;;;;5034890;28;19924;-73
2023/01/25 08:16:27;;;;;;;;;;;28.70;95.70;;;;;;5034679;28;19920;-73
2023/01/25 08:18:55;;;;;;;;;;;28.60;95.90;;;;;;5033636;28;20319;-72
2023/01/25 08:21:28;;;;;;;;;;;28.60;96.10;;;;;;5034417;28;20208;-73
2023/01/25 08:24:05;;;;;;;;;;;28.50;96.20;;;;;;5035244;28;19917;-73
2023/01/25 08:26:33;;;;;;;;;;;28.30;96.50;;;;;;5034590;28;20003;-74
2023/01/25 08:28:59;;;;;;;;;;;28.20;96.80;;;;;;5034782;28;20263;-72
2023/01/25 08:31:28;;;;;;;;;;;28.00;96.70;;;;;;5034532;28;19971;-72
2023/01/25 08:33:55;;;;;;;;;;;27.90;97.10;;;;;;5034571;28;19921;-75
2023/01/25 08:36:26;;;;;;;;;;;27.90;97.30;;;;;;5034511;28;19920;-70
2023/01/25 08:38:57;;;;;;;;;;;27.90;97.20;;;;;;5034559;28;20855;-72
2023/01/25 08:41:24;;;;;;;;;;;27.80;97.30;;;;;;5025440;28;19935;-72
2023/01/25 08:43:52;;;;;;;;;;;27.80;97.60;;;;;;5035447;28;20367;-72
2023/01/25 08:46:19;;;;;;;;;;;27.70;97.50;;;;;;5033200;28;19923;-73
2023/01/25 08:48:45;;;;;;;;;;;27.60;97.70;;;;;;5032763;28;19917;-73
2023/01/25 08:51:13;;;;;;;;;;;27.50;98.00;;;;;;5032233;28;20014;-73
2023/01/25 08:53:41;;;;;;;;;;;27.30;98.20;;;;;;5034524;28;19916;-73
2023/01/25 08:56:09;;;;;;;;;;;27.30;98.50;;;;;;5032850;28;19920;-72
2023/01/25 08:58:37;;;;;;;;;;;27.20;98.70;;;;;;5032527;28;19928;-72
2023/01/25 09:01:05;;;;;;;;;;;27.10;98.60;;;;;;5028605;28;19924;-75
2023/01/25 09:03:43;;;;;;;;;;;26.90;98.80;;;;;;5036594;28;20635;-73
2023/01/25 09:06:09;;;;;;;;;;;26.90;98.90;;;;;;5032675;28;19916;-72
2023/01/25 09:08:39;;;;;;;;;;;26.80;99.10;;;;;;5031830;28;19959;-72
2023/01/25 09:11:10;;;;;;;;;;;26.70;99.20;;;;;;5044577;28;20064;-72
2023/01/25 09:13:37;;;;;;;;;;;26.70;99.30;;;;;;5031619;28;19923;-72
2023/01/25 09:16:07;;;;;;;;;;;26.80;99.50;;;;;;5032581;28;20282;-72
2023/01/25 09:18:35;;;;;;;;;;;26.80;99.60;;;;;;5032171;28;19944;-73
2023/01/25 09:21:09;;;;;;;;;;;26.80;99.80;;;;;;5030546;28;19920;-72
2023/01/25 09:23:36;;;;;;;;;;;26.70;99.90;;;;;;5031854;28;20022;-73
2023/01/25 09:26:03;;;;;;;;;;;26.70;99.90;;;;;;5033123;28;19919;-73
2023/01/25 09:28:30;;;;;;;;;;;26.60;99.90;;;;;;5033410;28;20499;-73
2023/01/25 09:30:57;;;;;;;;;;;26.60;99.90;;;;;;5031737;28;19928;-73
2023/01/25 09:33:25;;;;;;;;;;;26.60;99.90;;;;;;5033643;28;19919;-72
2023/01/25 09:35:52;;;;;;;;;;;26.50;99.90;;;;;;5032576;28;19970;-72
2023/01/25 09:38:19;;;;;;;;;;;26.50;99.90;;;;;;5032835;28;20435;-72
2023/01/25 09:40:54;;;;;;;;;;;26.40;99.90;;;;;;5031206;28;19990;-72
2023/01/25 09:43:30;;;;;;;;;;;26.30;99.90;;;;;;5033550;28;19936;-73
2023/01/25 09:45:57;;;;;;;;;;;26.20;99.90;;;;;;5032078;28;19924;-73
2023/01/25 09:48:27;;;;;;;;;;;26.20;99.90;;;;;;5046914;28;20334;-73
2023/01/25 09:51:12;;;;;;;;;;;26.10;99.90;;;;;;5031938;28;20376;-73
2023/01/25 09:53:41;;;;;;;;;;;26.10;99.90;;;;;;5034250;28;19912;-73
2023/01/25 09:56:11;;;;;;;;;;;26.00;99.90;;;;;;5031896;28;19913;-72
2023/01/25 09:58:42;;;;;;;;;;;25.90;99.90;;;;;;5032243;28;19916;-72
2023/01/25 10:01:15;;;;;;;;;;;25.80;99.90;;;;;;5031304;28;19913;-73
2023/01/25 10:03:47;;;;;;;;;;;25.70;99.90;;;;;;5034087;28;19916;-72
2023/01/25 10:06:16;;;;;;;;;;;25.60;99.90;;;;;;5032106;28;19970;-73
2023/01/25 10:08:52;;;;;;;;;;;25.70;99.90;;;;;;5032201;28;19931;-72
2023/01/25 10:11:26;;;;;;;;;;;25.70;99.90;;;;;;5031718;28;19917;-71
2023/01/25 10:13:55;;;;;;;;;;;25.70;99.90;;;;;;5040806;28;19939;-73
2023/01/25 10:16:36;;;;;;;;;;;25.60;99.90;;;;;;5031911;28;19939;-72
2023/01/25 10:19:12;;;;;;;;;;;25.50;99.90;;;;;;5031874;28;19917;-73
2023/01/25 10:21:43;;;;;;;;;;;25.40;99.90;;;;;;5032124;28;20419;-73
2023/01/25 10:24:10;;;;;;;;;;;25.30;99.90;;;;;;5031798;28;19916;-73
2023/01/25 10:26:40;;;;;;;;;;;25.20;99.90;;;;;;5031096;28;20044;-73
2023/01/25 10:29:20;;;;;;;;;;;25.10;99.90;;;;;;5032206;28;20010;-72
2023/01/25 10:31:49;;;;;;;;;;;25.10;99.90;;;;;;5030697;28;19924;-72
2023/01/25 10:34:35;;;;;;;;;;;25.00;99.90;;;;;;5032765;28;19970;-73
2023/01/25 10:37:22;;;;;;;;;;;25.00;99.90;;;;;;5031965;28;19935;-73
2023/01/25 10:39:53;;;;;;;;;;;24.80;99.90;;;;;;5030258;28;20321;-73
2023/01/25 10:42:21;;;;;;;;;;;24.70;99.90;;;;;;5030603;28;19917;-73
2023/01/25 10:44:48;;;;;;;;;;;24.60;99.90;;;;;;5029811;28;19913;-73
2023/01/25 10:47:15;;;;;;;;;;;24.50;99.90;;;;;;5031948;28;20010;-73
2023/01/25 10:49:52;;;;;;;;;;;24.40;99.90;;;;;;5031587;28;19909;-73
2023/01/25 10:52:21;;;;;;;;;;;24.40;99.90;;;;;;5029789;28;19986;-74
2023/01/25 10:54:51;;;;;;;;;;;24.30;99.90;;;;;;5031206;28;19920;-73
2023/01/25 10:57:18;;;;;;;;;;;24.30;99.90;;;;;;5030733;28;19913;-73
2023/01/25 10:59:45;;;;;;;;;;;24.20;99.90;;;;;;5030740;28;19913;-72
2023/01/25 11:02:30;;;;;;;;;;;24.20;99.90;;;;;;5031282;28;19919;-72
2023/01/25 11:04:57;;;;;;;;;;;24.20;99.90;;;;;;5030931;28;21405;-73
2023/01/25 11:07:28;;;;;;;;;;;24.10;99.90;;;;;;5033242;28;19951;-73
2023/01/25 11:09:55;;;;;;;;;;;24.10;99.90;;;;;;5035052;28;19917;-72
2023/01/25 11:12:22;;;;;;;;;;;24.00;99.90;;;;;;5031786;28;19913;-72
2023/01/25 11:14:49;;;;;;;;;;;23.90;99.90;;;;;;5022616;28;20520;-73
2023/01/25 11:17:24;;;;;;;;;;;23.90;99.90;;;;;;5028842;28;19920;-73
2023/01/25 11:20:17;;;;;;;;;;;23.80;99.90;;;;;;5029306;28;19916;-74
2023/01/25 11:22:51;;;;;;;;;;;23.80;99.90;;;;;;5028129;28;19916;-74
2023/01/25 11:25:24;;;;;;;;;;;23.70;99.90;;;;;;5029611;28;20051;-74
2023/01/25 11:27:51;;;;;;;;;;;23.70;99.90;;;;;;5028136;28;20007;-73
2023/01/25 11:30:18;;;;;;;;;;;23.60;99.90;;;;;;5027938;28;19917;-73
2023/01/25 11:32:45;;;;;;;;;;;23.70;99.90;;;;;;5029252;28;19917;-72
2023/01/25 11:35:15;;;;;;;;;;;23.70;99.90;;;;;;5029463;28;20066;-73
2023/01/25 11:38:05;;;;;;;;;;;23.70;99.90;;;;;;5030456;28;20623;-73
2023/01/25 11:40:32;;;;;;;;;;;23.70;99.90;;;;;;5022728;28;19908;-73
2023/01/25 11:43:16;;;;;;;;;;;23.70;99.90;;;;;;5030067;28;20418;-73
2023/01/25 11:46:01;;;;;;;;;;;23.60;99.90;;;;;;5029662;28;19981;-73
2023/01/25 11:48:28;;;;;;;;;;;23.70;99.90;;;;;;5029736;28;20485;-72
2023/01/25 11:51:17;;;;;;;;;;;23.70;99.90;;;;;;5029125;28;19919;-71
2023/01/25 11:54:00;;;;;;;;;;;23.70;99.90;;;;;;5029289;28;19917;-72
2023/01/25 11:56:49;;;;;;;;;;;23.60;99.90;;;;;;5030560;28;20375;-73
2023/01/25 11:59:18;;;;;;;;;;;23.60;99.90;;;;;;5030620;28;19924;-72
2023/01/25 12:01:51;;;;;;;;;;;23.50;99.90;;;;;;5028819;28;19948;-73
2023/01/25 12:04:32;;;;;;;;;;;23.50;99.90;;;;;;5030620;28;19913;-72
2023/01/25 12:07:02;;;;;;;;;;;23.50;99.90;;;;;;5030690;28;20366;-74
2023/01/25 12:09:47;;;;;;;;;;;23.60;99.90;;;;;;5043993;28;19971;-72
2023/01/25 12:12:19;;;;;;;;;;;23.50;99.90;;;;;;5029200;28;19909;-72
2023/01/25 12:15:04;;;;;;;;;;;23.50;99.90;;;;;;5028318;28;19925;-71
2023/01/25 12:17:33;;;;;;;;;;;23.50;99.90;;;;;;5029421;28;19913;-72
2023/01/25 12:20:18;;;;;;;;;;;23.50;99.90;;;;;;5029620;28;19913;-72
2023/01/25 12:22:51;;;;;;;;;;;23.50;99.90;;;;;;5029819;28;20401;-71
2023/01/25 12:25:49;;;;;;;;;;;23.50;99.90;;;;;;5029938;28;20364;-71
2023/01/25 12:28:22;;;;;;;;;;;23.50;99.90;;;;;;5006095;28;20294;-72
2023/01/25 12:30:52;;;;;;;;;;;23.50;99.90;;;;;;5029553;28;20450;-71
2023/01/25 12:33:25;;;;;;;;;;;23.40;99.90;;;;;;5030317;28;19927;-73
2023/01/25 12:35:57;;;;;;;;;;;23.30;99.90;;;;;;5029238;28;20011;-73
2023/01/25 12:38:27;;;;;;;;;;;23.30;99.90;;;;;;5030598;28;19935;-73
2023/01/25 12:40:57;;;;;;;;;;;23.20;99.90;;;;;;5019446;28;20211;-73
2023/01/25 12:43:37;;;;;;;;;;;23.20;99.90;;;;;;5030075;28;20383;-73
2023/01/25 12:46:10;;;;;;;;;;;23.10;99.90;;;;;;5029654;28;19916;-73
2023/01/25 12:48:40;;;;;;;;;;;23.10;99.90;;;;;;5027666;28;20496;-73
2023/01/25 12:51:07;;;;;;;;;;;23.00;99.90;;;;;;5028721;28;19920;-73
2023/01/25 12:53:41;;;;;;;;;;;23.00;99.90;;;;;;5029222;28;19913;-73
2023/01/25 12:56:11;;;;;;;;;;;22.90;99.90;;;;;;5030400;28;19925;-73
2023/01/25 12:58:43;;;;;;;;;;;22.80;99.90;;;;;;5031067;28;19917;-72
2023/01/25 13:01:18;;;;;;;;;;;22.80;99.90;;;;;;5033361;28;19916;-72
2023/01/25 13:03:59;;;;;;;;;;;22.80;99.90;;;;;;5030163;28;20011;-71
2023/01/25 13:06:32;;;;;;;;;;;22.80;99.90;;;;;;5031748;28;19917;-71
2023/01/25 13:09:06;;;;;;;;;;;22.80;99.90;;;;;;5032530;28;20024;-71
2023/01/25 13:11:35;;;;;;;;;;;22.80;99.90;;;;;;5030800;28;19917;-72
2023/01/25 13:14:19;;;;;;;;;;;22.70;99.90;;;;;;5036739;28;19912;-73
2023/01/25 13:16:50;;;;;;;;;;;22.60;99.90;;;;;;5031233;28;19917;-73
2023/01/25 13:19:29;;;;;;;;;;;22.60;99.90;;;;;;5024289;28;19916;-73
2023/01/25 13:21:57;;;;;;;;;;;22.60;99.90;;;;;;5025424;28;19939;-73
2023/01/25 13:24:25;;;;;;;;;;;22.50;99.90;;;;;;5026841;28;19948;-73
2023/01/25 13:26:52;;;;;;;;;;;22.60;99.90;;;;;;5026292;28;20036;-71
2023/01/25 13:29:33;;;;;;;;;;;22.50;99.90;;;;;;5031088;28;20022;-71
2023/01/25 13:32:01;;;;;;;;;;;22.50;99.90;;;;;;5032314;28;19917;-72
2023/01/25 13:34:51;;;;;;;;;;;22.40;99.90;;;;;;5032605;28;19928;-72
2023/01/25 13:37:24;;;;;;;;;;;22.40;99.90;;;;;;5029124;28;19962;-72
2023/01/25 13:39:52;;;;;;;;;;;22.40;99.90;;;;;;5029742;28;19917;-73
2023/01/25 13:42:25;;;;;;;;;;;22.40;99.90;;;;;;5029037;28;19964;-73
2023/01/25 13:44:53;;;;;;;;;;;22.30;99.90;;;;;;5031149;28;19920;-74
2023/01/25 13:47:22;;;;;;;;;;;22.30;99.90;;;;;;5029330;28;19982;-72
2023/01/25 13:50:11;;;;;;;;;;;22.20;99.90;;;;;;5030163;28;19913;-74
2023/01/25 13:52:38;;;;;;;;;;;22.20;99.90;;;;;;5028299;28;19920;-71
2023/01/25 13:55:16;;;;;;;;;;;22.10;99.90;;;;;;5030928;28;20433;-72
2023/01/25 13:57:43;;;;;;;;;;;22.10;99.90;;;;;;5031596;28;19919;-73
2023/01/25 14:00:16;;;;;;;;;;;22.00;99.90;;;;;;5031687;28;20362;-71
2023/01/25 14:02:44;;;;;;;;;;;22.10;99.90;;;;;;5033289;28;19912;-74
2023/01/25 14:05:19;;;;;;;;;;;22.00;99.90;;;;;;5030464;28;19919;-73
2023/01/25 14:07:47;;;;;;;;;;;21.90;99.90;;;;;;5031066;28;20007;-73
2023/01/25 14:10:15;;;;;;;;;;;21.90;99.90;;;;;;5030380;28;19919;-72
2023/01/25 14:12:42;;;;;;;;;;;21.80;99.90;;;;;;5045918;28;19963;-71
2023/01/25 14:15:18;;;;;;;;;;;21.80;99.90;;;;;;5031660;28;19927;-71
2023/01/25 14:17:45;;;;;;;;;;;21.80;99.90;;;;;;5031491;28;19923;-74
2023/01/25 14:20:21;;;;;;;;;;;21.80;99.90;;;;;;5030553;28;19916;-74
2023/01/25 14:22:49;;;;;;;;;;;21.80;99.90;;;;;;5030042;28;20054;-73
2023/01/25 14:25:21;;;;;;;;;;;21.80;99.90;;;;;;5030892;28;19913;-71
2023/01/25 14:27:47;;;;;;;;;;;21.70;99.90;;;;;;5030886;28;19916;-75
2023/01/25 14:30:16;;;;;;;;;;;21.60;99.90;;;;;;5031647;28;19920;-73